createdAt,value
2023-06-10T00:00:23.769Z,6.63
2023-06-10T00:02:52.016Z,6.80
2023-06-10T00:05:22.002Z,11.60
2023-06-10T00:07:50.653Z,6.83
2023-06-10T00:10:18.894Z,6.80
2023-06-10T00:12:47.036Z,7.57
2023-06-10T00:15:16.498Z,5.97
2023-06-10T00:17:45.185Z,6.57
2023-06-10T00:20:14.180Z,6.40
2023-06-10T00:22:43.037Z,7.27
2023-06-10T00:25:12.407Z,7.73
2023-06-10T00:27:40.741Z,6.70
2023-06-10T00:30:09.910Z,6.10
2023-06-10T00:32:40.009Z,6.57
2023-06-10T00:35:09.235Z,6.27
2023-06-10T00:37:37.656Z,7.63
2023-06-10T00:40:06.492Z,7.00
2023-06-10T00:42:34.988Z,6.80
2023-06-10T00:45:03.140Z,7.37
2023-06-10T00:47:32.206Z,7.03
2023-06-10T00:50:01.889Z,7.00
2023-06-10T00:52:31.324Z,6.37
2023-06-10T00:55:00.155Z,7.13
2023-06-10T00:57:28.570Z,9.53
2023-06-10T00:59:56.606Z,7.03
2023-06-10T01:02:25.244Z,7.80
2023-06-10T01:04:53.579Z,6.90
2023-06-10T01:07:27.189Z,7.13
2023-06-10T01:10:00.137Z,9.40
2023-06-10T01:12:56.978Z,7.60
2023-06-10T01:15:25.417Z,6.70
2023-06-10T01:17:58.480Z,7.80
2023-06-10T01:20:27.854Z,7.57
2023-06-10T01:22:58.997Z,8.43
2023-06-10T01:25:29.742Z,7.83
2023-06-10T01:28:04.238Z,7.57
2023-06-10T01:30:44.859Z,7.47
2023-06-10T01:33:13.476Z,7.63
2023-06-10T01:35:42.607Z,7.20
2023-06-10T01:38:12.991Z,7.67
2023-06-10T01:40:41.685Z,7.37
2023-06-10T01:43:09.860Z,9.43
2023-06-10T01:45:37.846Z,7.43
2023-06-10T01:48:06.398Z,7.93
2023-06-10T01:50:34.494Z,8.90
2023-06-10T01:53:02.569Z,8.17
2023-06-10T01:55:31.990Z,8.73
2023-06-10T01:58:00.064Z,7.87
2023-06-10T02:00:28.145Z,8.07
2023-06-10T02:02:56.393Z,8.13
2023-06-10T02:05:24.561Z,8.00
2023-06-10T02:07:52.691Z,8.33
2023-06-10T02:10:23.268Z,12.77
2023-06-10T02:12:53.243Z,7.47
2023-06-10T02:15:21.317Z,7.83
2023-06-10T02:17:50.137Z,8.80
2023-06-10T02:20:18.241Z,8.33
2023-06-10T02:22:46.367Z,8.30
2023-06-10T02:25:14.461Z,7.47
2023-06-10T02:27:42.468Z,8.57
2023-06-10T02:30:13.900Z,7.97
2023-06-10T02:32:42.781Z,7.97
2023-06-10T02:35:13.669Z,8.40
2023-06-10T02:37:42.043Z,8.77
2023-06-10T02:40:11.750Z,9.20
2023-06-10T02:42:40.638Z,8.77
2023-06-10T02:45:10.883Z,8.70
2023-06-10T02:47:44.091Z,8.60
2023-06-10T02:50:13.604Z,9.03
2023-06-10T02:53:04.251Z,8.53
2023-06-10T02:55:33.534Z,9.37
2023-06-10T02:58:04.804Z,8.63
2023-06-10T03:00:34.224Z,9.33
2023-06-10T03:03:06.254Z,8.70
2023-06-10T03:05:41.712Z,8.50
2023-06-10T03:08:10.278Z,8.33
2023-06-10T03:10:41.655Z,8.63
2023-06-10T03:13:12.227Z,8.83
2023-06-10T03:15:41.959Z,9.00
2023-06-10T03:18:14.954Z,9.63
2023-06-10T03:20:45.656Z,8.73
2023-06-10T03:23:13.816Z,8.63
2023-06-10T03:25:42.227Z,9.23
2023-06-10T03:28:13.283Z,8.83
2023-06-10T03:30:41.419Z,9.10
2023-06-10T03:33:09.491Z,9.10
2023-06-10T03:35:39.502Z,9.50
2023-06-10T03:38:08.009Z,9.77
2023-06-10T03:40:36.084Z,8.83
2023-06-10T03:43:04.771Z,9.57
2023-06-10T03:45:33.427Z,9.03
2023-06-10T03:48:02.477Z,9.03
2023-06-10T03:50:43.622Z,9.27
2023-06-10T03:53:11.797Z,9.83
2023-06-10T03:55:42.678Z,9.33
2023-06-10T03:58:10.894Z,9.40
2023-06-10T04:00:42.594Z,8.90
2023-06-10T04:03:15.608Z,10.17
2023-06-10T04:05:51.376Z,9.10
2023-06-10T04:08:19.534Z,9.60
2023-06-10T04:10:47.718Z,10.07
2023-06-10T04:13:16.151Z,9.47
2023-06-10T04:15:53.030Z,8.83
2023-06-10T04:18:22.837Z,9.17
2023-06-10T04:20:53.243Z,9.07
2023-06-10T04:23:21.343Z,9.03
2023-06-10T04:25:49.778Z,8.83
2023-06-10T04:28:17.993Z,9.33
2023-06-10T04:30:47.104Z,9.10
2023-06-10T04:33:15.585Z,8.47
2023-06-10T04:35:43.886Z,9.07
2023-06-10T04:38:16.357Z,8.33
2023-06-10T04:40:45.225Z,9.03
2023-06-10T04:43:15.688Z,8.87
2023-06-10T04:45:45.956Z,9.37
2023-06-10T04:48:14.812Z,9.40
2023-06-10T04:50:42.922Z,9.23
2023-06-10T04:53:12.301Z,11.87
2023-06-10T04:55:45.106Z,10.67
2023-06-10T04:58:13.469Z,9.30
2023-06-10T05:00:41.529Z,9.33
2023-06-10T05:03:09.686Z,9.87
2023-06-10T05:05:37.819Z,8.93
2023-06-10T05:08:08.535Z,9.53
2023-06-10T05:10:36.910Z,8.83
2023-06-10T05:13:06.377Z,8.60
2023-06-10T05:15:34.442Z,8.40
2023-06-10T05:18:03.935Z,9.87
2023-06-10T05:20:32.194Z,9.73
2023-06-10T05:23:00.300Z,10.40
2023-06-10T05:25:28.518Z,12.20
2023-06-10T05:27:56.713Z,16.00
2023-06-10T05:30:27.006Z,17.53
2023-06-10T05:32:56.692Z,20.70
2023-06-10T05:35:24.987Z,17.97
2023-06-10T05:37:53.035Z,17.90
2023-06-10T05:40:21.220Z,21.37
2023-06-10T05:42:49.263Z,18.80
2023-06-10T05:45:17.575Z,14.93
2023-06-10T05:47:47.083Z,17.10
2023-06-10T05:50:15.273Z,17.07
2023-06-10T05:52:43.421Z,15.87
2023-06-10T05:55:12.573Z,18.87
2023-06-10T05:57:47.056Z,15.03
2023-06-10T06:00:16.277Z,16.97
2023-06-10T06:02:44.397Z,14.13
2023-06-10T06:05:14.457Z,16.87
2023-06-10T06:07:42.681Z,9.70
2023-06-10T06:10:11.190Z,9.40
2023-06-10T06:12:39.204Z,7.97
2023-06-10T06:15:09.624Z,6.83
2023-06-10T06:17:38.050Z,9.77
2023-06-10T06:20:07.379Z,9.00
2023-06-10T06:22:36.942Z,7.40
2023-06-10T06:25:05.524Z,7.23
2023-06-10T06:27:33.619Z,9.23
2023-06-10T06:30:01.666Z,6.67
2023-06-10T06:32:30.536Z,7.30
2023-06-10T06:34:58.578Z,6.80
2023-06-10T06:37:27.536Z,6.00
2023-06-10T06:40:11.451Z,6.77
2023-06-10T06:42:39.453Z,7.30
2023-06-10T06:45:20.230Z,6.60
2023-06-10T06:47:48.294Z,7.33
2023-06-10T06:50:17.512Z,8.03
2023-06-10T06:52:45.531Z,9.60
2023-06-10T06:55:15.051Z,7.37
2023-06-10T06:57:43.090Z,6.80
2023-06-10T07:00:12.060Z,6.30
2023-06-10T07:02:40.105Z,6.30
2023-06-10T07:05:09.252Z,6.73
2023-06-10T07:07:37.601Z,5.67
2023-06-10T07:10:06.338Z,6.50
2023-06-10T07:12:35.737Z,7.23
2023-06-10T07:15:03.870Z,6.57
2023-06-10T07:17:36.072Z,6.43
2023-06-10T07:20:04.817Z,5.23
2023-06-10T07:22:32.852Z,5.93
2023-06-10T07:25:06.605Z,5.67
2023-06-10T07:27:42.089Z,7.00
2023-06-10T07:30:12.069Z,5.17
2023-06-10T07:32:40.107Z,6.63
2023-06-10T07:35:12.314Z,5.13
2023-06-10T07:37:40.503Z,5.77
2023-06-10T07:40:09.389Z,6.20
2023-06-10T07:42:38.826Z,5.87
2023-06-10T07:45:08.182Z,5.97
2023-06-10T07:47:36.627Z,6.07
2023-06-10T07:50:05.109Z,6.83
2023-06-10T07:52:33.127Z,7.70
2023-06-10T07:55:01.144Z,5.80
2023-06-10T07:57:29.278Z,5.40
2023-06-10T08:00:00.813Z,5.67
2023-06-10T08:02:28.939Z,6.03
2023-06-10T08:04:57.001Z,7.87
2023-06-10T08:07:25.134Z,6.43
2023-06-10T08:09:53.154Z,6.40
2023-06-10T08:12:21.415Z,5.90
2023-06-10T08:14:49.524Z,5.70
2023-06-10T08:17:18.994Z,7.40
2023-06-10T08:19:47.059Z,5.70
2023-06-10T08:22:15.929Z,7.07
2023-06-10T08:24:44.859Z,7.27
2023-06-10T08:27:14.383Z,5.77
2023-06-10T08:29:42.452Z,5.77
2023-06-10T08:32:10.652Z,5.80
2023-06-10T08:34:40.160Z,5.87
2023-06-10T08:37:09.070Z,6.20
2023-06-10T08:39:37.091Z,5.80
2023-06-10T08:42:13.275Z,5.87
2023-06-10T08:44:42.350Z,5.50
2023-06-10T08:47:15.554Z,9.60
2023-06-10T08:49:46.890Z,6.00
2023-06-10T08:52:17.785Z,5.47
2023-06-10T08:54:51.936Z,5.23
2023-06-10T08:57:21.423Z,6.43
2023-06-10T08:59:50.416Z,6.23
2023-06-10T09:02:21.349Z,5.23
2023-06-10T09:04:51.978Z,7.23
2023-06-10T09:07:20.225Z,7.17
2023-06-10T09:09:49.248Z,6.27
2023-06-10T09:12:18.110Z,5.87
2023-06-10T09:14:46.449Z,7.17
2023-06-10T09:17:14.462Z,5.93
2023-06-10T09:19:42.857Z,6.77
2023-06-10T09:22:12.566Z,9.13
2023-06-10T09:24:41.409Z,6.13
2023-06-10T09:27:11.161Z,6.63
2023-06-10T09:29:50.162Z,5.70
2023-06-10T09:32:19.503Z,5.20
2023-06-10T09:34:48.323Z,8.17
2023-06-10T09:37:24.412Z,5.43
2023-06-10T09:40:04.254Z,7.70
2023-06-10T09:42:36.378Z,5.70
2023-06-10T09:45:05.289Z,5.57
2023-06-10T09:47:33.746Z,5.73
2023-06-10T09:50:02.806Z,5.53
2023-06-10T09:52:33.144Z,5.60
2023-06-10T09:55:02.672Z,5.43
2023-06-10T09:57:35.280Z,5.50
2023-06-10T10:00:06.872Z,5.10
2023-06-10T10:02:47.375Z,5.23
2023-06-10T10:05:17.039Z,5.13
2023-06-10T10:07:47.412Z,7.13
2023-06-10T10:10:16.925Z,6.20
2023-06-10T10:12:45.191Z,6.20
2023-06-10T10:15:13.793Z,5.03
2023-06-10T10:17:51.753Z,6.00
2023-06-10T10:20:23.143Z,5.80
2023-06-10T10:22:55.165Z,5.57
2023-06-10T10:25:26.525Z,5.77
2023-06-10T10:27:58.887Z,5.93
2023-06-10T10:30:27.228Z,5.70
2023-06-10T10:32:59.958Z,8.23
2023-06-10T10:35:28.397Z,6.10
2023-06-10T10:37:57.772Z,5.63
2023-06-10T10:40:27.460Z,6.63
2023-06-10T10:43:21.373Z,5.20
2023-06-10T10:46:03.187Z,5.57
2023-06-10T10:48:36.005Z,7.80
2023-06-10T10:51:04.147Z,5.10
2023-06-10T10:53:33.616Z,6.67
2023-06-10T10:56:01.825Z,5.20
2023-06-10T10:58:29.859Z,5.30
2023-06-10T11:00:58.288Z,6.70
2023-06-10T11:03:34.052Z,4.97
2023-06-10T11:06:03.666Z,4.50
2023-06-10T11:08:51.842Z,6.27
2023-06-10T11:11:22.116Z,5.23
2023-06-10T11:14:10.832Z,6.60
2023-06-10T11:16:43.766Z,7.90
2023-06-10T11:19:12.271Z,5.23
2023-06-10T11:22:01.927Z,6.07
2023-06-10T11:24:32.221Z,5.50
2023-06-10T11:27:20.099Z,4.90
2023-06-10T11:30:25.979Z,8.80
2023-06-10T11:32:55.087Z,6.33
2023-06-10T11:35:25.980Z,5.13
2023-06-10T11:37:54.251Z,5.03
2023-06-10T11:40:24.542Z,6.30
2023-06-10T11:42:53.252Z,5.80
2023-06-10T11:45:26.391Z,6.70
2023-06-10T11:47:59.579Z,5.23
2023-06-10T11:50:32.611Z,5.07
2023-06-10T11:53:01.115Z,4.70
2023-06-10T11:55:44.031Z,5.37
2023-06-10T11:58:16.929Z,5.07
2023-06-10T12:00:49.168Z,5.40
2023-06-10T12:03:18.003Z,5.70
2023-06-10T12:06:00.663Z,4.57
2023-06-10T12:08:32.326Z,5.23
2023-06-10T12:11:03.829Z,4.47
2023-06-10T12:13:32.121Z,4.17
2023-06-10T12:16:09.056Z,4.90
2023-06-10T12:18:37.235Z,4.63
2023-06-10T12:21:05.873Z,3.83
2023-06-10T12:23:35.539Z,4.97
2023-06-10T12:26:05.820Z,4.17
2023-06-10T12:28:33.902Z,4.87
2023-06-10T12:31:09.174Z,4.03
2023-06-10T12:33:37.721Z,5.70
2023-06-10T12:36:06.534Z,4.30
2023-06-10T12:38:34.661Z,4.73
2023-06-10T12:41:06.361Z,5.23
2023-06-10T12:43:35.502Z,4.80
2023-06-10T12:46:13.775Z,5.13
2023-06-10T12:48:52.729Z,5.07
2023-06-10T12:51:21.075Z,4.80
2023-06-10T12:53:49.295Z,5.93
2023-06-10T12:56:18.846Z,5.17
2023-06-10T12:58:47.602Z,4.10
2023-06-10T13:01:16.070Z,7.20
2023-06-10T13:03:44.356Z,5.13
2023-06-10T13:06:12.955Z,5.20
2023-06-10T13:08:42.005Z,4.37
2023-06-10T13:11:21.295Z,6.30
2023-06-10T13:14:08.306Z,5.87
2023-06-10T13:16:38.991Z,5.40
2023-06-10T13:19:07.701Z,3.87
2023-06-10T13:21:37.215Z,4.00
2023-06-10T13:24:06.876Z,4.23
2023-06-10T13:26:36.929Z,4.20
2023-06-10T13:29:09.154Z,4.60
2023-06-10T13:31:37.663Z,3.60
2023-06-10T13:34:06.129Z,6.30
2023-06-10T13:36:34.718Z,6.03
2023-06-10T13:39:02.906Z,3.93
2023-06-10T13:41:32.857Z,3.57
2023-06-10T13:44:02.695Z,3.57
2023-06-10T13:46:30.891Z,3.77
2023-06-10T13:48:59.064Z,3.43
2023-06-10T13:51:27.234Z,4.20
2023-06-10T13:53:55.605Z,3.23
2023-06-10T13:59:27.242Z,3.63
2023-06-10T14:01:55.745Z,4.83
2023-06-10T14:04:23.902Z,4.57
2023-06-10T14:06:52.068Z,3.70
2023-06-10T14:09:20.194Z,3.83
2023-06-10T14:11:48.589Z,3.60
2023-06-10T14:14:17.287Z,4.87
2023-06-10T14:16:46.801Z,4.67
2023-06-10T14:19:14.994Z,5.47
2023-06-10T14:21:43.409Z,3.80
2023-06-10T14:24:11.666Z,6.03
2023-06-10T14:26:41.332Z,3.53
2023-06-10T14:29:20.582Z,4.67
2023-06-10T14:31:53.434Z,4.57
2023-06-10T14:34:21.800Z,6.10
2023-06-10T14:36:49.948Z,5.60
2023-06-10T14:39:18.506Z,5.37
2023-06-10T14:41:46.638Z,3.83
2023-06-10T14:44:15.284Z,5.73
2023-06-10T14:46:43.522Z,4.30
2023-06-10T14:49:13.151Z,3.47
2023-06-10T14:51:41.288Z,7.20
2023-06-10T14:54:09.387Z,3.67
2023-06-10T14:56:37.455Z,4.30
2023-06-10T14:59:06.808Z,5.53
2023-06-10T15:01:34.884Z,4.97
2023-06-10T15:04:03.412Z,3.40
2023-06-10T15:06:32.875Z,4.57
2023-06-10T15:09:00.953Z,4.87
2023-06-10T15:11:29.146Z,5.40
2023-06-10T15:13:57.541Z,3.77
2023-06-10T15:16:25.948Z,5.40
2023-06-10T15:18:54.451Z,3.87
2023-06-10T15:21:22.860Z,4.37
2023-06-10T15:23:58.032Z,4.67
2023-06-10T15:26:30.448Z,5.23
2023-06-10T15:28:59.264Z,4.13
2023-06-10T15:31:27.883Z,3.53
2023-06-10T15:33:56.081Z,4.00
2023-06-10T15:36:24.726Z,7.80
2023-06-10T15:38:56.801Z,3.70
2023-06-10T15:41:28.397Z,4.37
2023-06-10T15:44:00.559Z,6.73
2023-06-10T15:46:29.295Z,4.67
2023-06-10T15:48:58.171Z,6.63
2023-06-10T15:51:26.616Z,6.00
2023-06-10T15:53:56.247Z,4.73
2023-06-10T15:56:24.717Z,4.00
2023-06-10T15:58:53.070Z,3.77
2023-06-10T16:01:21.462Z,3.80
2023-06-10T16:03:49.791Z,3.60
2023-06-10T16:06:18.136Z,4.30
2023-06-10T16:08:46.928Z,5.20
2023-06-10T16:11:16.551Z,7.60
2023-06-10T16:13:44.718Z,5.13
2023-06-10T16:16:13.086Z,8.53
2023-06-10T16:18:41.193Z,4.17
2023-06-10T16:21:09.368Z,8.03
2023-06-10T16:23:38.689Z,4.27
2023-06-10T16:26:07.507Z,4.23
2023-06-10T16:28:36.914Z,5.57
2023-06-10T16:31:05.315Z,4.90
2023-06-10T16:33:33.902Z,5.77
2023-06-10T16:36:02.104Z,3.90
2023-06-10T16:38:30.282Z,3.80
2023-06-10T16:40:58.693Z,5.03
2023-06-10T16:43:27.604Z,3.97
2023-06-10T16:45:58.231Z,4.33
2023-06-10T16:48:26.416Z,4.03
2023-06-10T16:50:54.688Z,5.27
2023-06-10T16:53:22.995Z,10.07
2023-06-10T16:55:51.235Z,4.87
2023-06-10T16:58:19.419Z,4.47
2023-06-10T17:00:47.908Z,4.20
2023-06-10T17:03:17.611Z,4.13
2023-06-10T17:05:45.924Z,4.20
2023-06-10T17:08:14.492Z,6.57
2023-06-10T17:10:45.217Z,7.70
2023-06-10T17:13:13.673Z,3.90
2023-06-10T17:15:43.364Z,5.07
2023-06-10T17:18:11.974Z,4.43
2023-06-10T17:20:41.698Z,5.83
2023-06-10T17:23:10.470Z,5.10
2023-06-10T17:25:39.771Z,6.43
2023-06-10T17:28:08.302Z,4.47
2023-06-10T17:30:37.510Z,4.23
2023-06-10T17:33:06.762Z,4.27
2023-06-10T17:35:35.819Z,5.67
2023-06-10T17:38:05.304Z,4.53
2023-06-10T17:40:33.467Z,4.57
2023-06-10T17:43:01.747Z,5.13
2023-06-10T17:45:30.142Z,3.93
2023-06-10T17:47:58.446Z,5.80
2023-06-10T17:50:26.699Z,4.60
2023-06-10T17:52:54.921Z,5.33
2023-06-10T17:55:24.917Z,4.00
2023-06-10T17:57:53.211Z,4.87
2023-06-10T18:00:22.238Z,4.27
2023-06-10T18:02:51.472Z,5.57
2023-06-10T18:05:19.891Z,4.63
2023-06-10T18:07:48.471Z,4.67
2023-06-10T18:10:16.843Z,4.80
2023-06-10T18:12:46.337Z,5.47
2023-06-10T18:15:14.872Z,4.33
2023-06-10T18:17:43.197Z,4.40
2023-06-10T18:20:11.929Z,4.00
2023-06-10T18:22:40.033Z,5.00
2023-06-10T18:25:08.856Z,5.77
2023-06-10T18:27:37.303Z,7.73
2023-06-10T18:30:08.426Z,7.10
2023-06-10T18:32:36.579Z,5.37
2023-06-10T18:35:05.023Z,4.57
2023-06-10T18:37:33.140Z,7.03
2023-06-10T18:40:01.379Z,4.17
2023-06-10T18:42:29.554Z,4.80
2023-06-10T18:44:58.062Z,4.50
2023-06-10T18:47:27.550Z,5.83
2023-06-10T18:49:55.653Z,5.17
2023-06-10T18:52:23.878Z,7.13
2023-06-10T18:54:52.455Z,5.43
2023-06-10T18:57:21.352Z,4.67
2023-06-10T18:59:52.452Z,6.63
2023-06-10T19:02:21.840Z,5.03
2023-06-10T19:04:51.831Z,4.67
2023-06-10T19:07:20.726Z,5.50
2023-06-10T19:09:49.710Z,4.23
2023-06-10T19:12:18.173Z,6.77
2023-06-10T19:14:46.562Z,5.40
2023-06-10T19:17:14.944Z,5.03
2023-06-10T19:19:43.272Z,5.57
2023-06-10T19:22:12.879Z,4.27
2023-06-10T19:24:41.436Z,9.43
2023-06-10T19:27:09.631Z,6.27
2023-06-10T19:29:38.106Z,6.53
2023-06-10T19:32:08.129Z,7.70
2023-06-10T19:34:36.445Z,11.77
2023-06-10T19:37:04.874Z,7.53
2023-06-10T19:39:34.704Z,6.13
2023-06-10T19:42:03.297Z,7.97
2023-06-10T19:44:31.514Z,7.07
2023-06-10T19:47:00.440Z,6.50
2023-06-10T19:49:29.121Z,8.33
2023-06-10T19:51:57.482Z,7.37
2023-06-10T19:54:25.735Z,4.97
2023-06-10T19:56:55.539Z,10.00
2023-06-10T19:59:23.772Z,5.60
2023-06-10T20:01:52.278Z,9.37
2023-06-10T20:04:20.743Z,10.67
2023-06-10T20:06:49.166Z,7.87
2023-06-10T20:09:17.302Z,6.17
2023-06-10T20:11:46.049Z,7.43
2023-06-10T20:14:15.831Z,6.30
2023-06-10T20:16:44.146Z,4.63
2023-06-10T20:19:12.914Z,5.13
2023-06-10T20:21:41.063Z,5.00
2023-06-10T20:24:10.020Z,5.10
2023-06-10T20:26:38.192Z,5.80
2023-06-10T20:29:06.504Z,5.07
2023-06-10T20:31:36.066Z,6.37
2023-06-10T20:34:04.190Z,5.23
2023-06-10T20:36:33.068Z,7.00
2023-06-10T20:39:01.270Z,7.40
2023-06-10T20:41:30.241Z,6.47
2023-06-10T20:43:59.626Z,7.03
2023-06-10T20:46:27.865Z,5.90
2023-06-10T20:48:57.457Z,6.70
2023-06-10T20:51:25.608Z,5.93
2023-06-10T20:53:53.696Z,5.90
2023-06-10T20:56:23.050Z,7.73
2023-06-10T20:58:51.118Z,5.60
2023-06-10T21:01:19.300Z,6.70
2023-06-10T21:03:47.744Z,5.83
2023-06-10T21:06:17.202Z,5.73
2023-06-10T21:08:45.220Z,5.33
2023-06-10T21:11:13.302Z,6.63
2023-06-10T21:13:41.296Z,9.90
2023-06-10T21:16:09.337Z,5.17
2023-06-10T21:18:37.598Z,6.33
2023-06-10T21:21:06.105Z,5.73
2023-06-10T21:23:35.615Z,6.40
2023-06-10T21:26:06.451Z,5.70
2023-06-10T21:28:34.870Z,5.17
2023-06-10T21:31:05.026Z,5.63
2023-06-10T21:33:33.049Z,6.93
2023-06-10T21:36:01.224Z,6.00
2023-06-10T21:38:29.260Z,6.17
2023-06-10T21:40:58.679Z,6.23
2023-06-10T21:43:26.880Z,6.03
2023-06-10T21:45:57.404Z,7.80
2023-06-10T21:48:25.858Z,6.23
2023-06-10T21:50:54.289Z,6.87
2023-06-10T21:53:22.491Z,6.40
2023-06-10T21:55:51.298Z,7.60
2023-06-10T21:58:20.940Z,6.07
2023-06-10T22:00:49.135Z,6.50
2023-06-10T22:03:17.295Z,5.90
2023-06-10T22:05:45.534Z,6.27
2023-06-10T22:08:14.173Z,6.00
2023-06-10T22:10:42.772Z,7.37
2023-06-10T22:13:11.264Z,6.73
2023-06-10T22:15:40.701Z,6.60
2023-06-10T22:18:13.404Z,7.10
2023-06-10T22:20:42.604Z,6.07
2023-06-10T22:23:10.682Z,6.87
2023-06-10T22:25:38.654Z,6.50
2023-06-10T22:28:06.654Z,6.70
2023-06-10T22:30:34.871Z,8.10
2023-06-10T22:33:04.296Z,7.03
2023-06-10T22:35:32.418Z,7.67
2023-06-10T22:38:00.525Z,9.07
2023-06-10T22:40:28.569Z,8.03
2023-06-10T22:42:57.124Z,7.73
2023-06-10T22:45:25.124Z,6.87
2023-06-10T22:47:53.329Z,7.40
2023-06-10T22:50:23.101Z,6.80
2023-06-10T22:52:51.745Z,7.27
2023-06-10T22:55:19.901Z,7.30
2023-06-10T22:57:48.078Z,7.57
2023-06-10T23:00:17.062Z,7.83
2023-06-10T23:02:45.246Z,7.37
2023-06-10T23:05:13.437Z,7.47
2023-06-10T23:07:43.011Z,9.60
2023-06-10T23:10:11.406Z,7.60
2023-06-10T23:12:39.864Z,8.47
2023-06-10T23:15:08.950Z,7.70
2023-06-10T23:17:37.378Z,8.30
2023-06-10T23:20:07.598Z,8.20
2023-06-10T23:22:35.765Z,7.77
2023-06-10T23:25:05.964Z,7.87
2023-06-10T23:27:33.970Z,7.23
2023-06-10T23:30:02.148Z,8.53
2023-06-10T23:32:30.316Z,8.50
2023-06-10T23:34:58.784Z,7.80
2023-06-10T23:37:27.020Z,7.77
2023-06-10T23:39:55.156Z,8.23
2023-06-10T23:42:25.564Z,7.80
2023-06-10T23:44:53.920Z,7.90
2023-06-10T23:47:22.140Z,8.03
2023-06-10T23:49:50.229Z,6.77
2023-06-10T23:52:19.097Z,8.30
2023-06-10T23:54:50.423Z,7.33
2023-06-10T23:57:19.080Z,8.53
2023-06-10T23:59:48.476Z,7.50
